sensor_id;sensor_type;location;lat;lon;timestamp;pressure;altitude;pressure_sealevel;temperature;humidity
10652;BME280;5374;42.742;23.266;2023-01-08T00:02:22;95937.63;;;1.30;81.96
10652;BME280;5374;42.742;23.266;2023-01-08T00:05:11;96014.97;;;1.77;82.58
10652;BME280;5374;42.742;23.266;2023-01-08T00:07:59;95985.88;;;1.43;82.39
10652;BME280;5374;42.742;23.266;2023-01-08T00:10:52;96017.69;;;1.69;83.00
10652;BME280;5374;42.742;23.266;2023-01-08T00:13:41;95928.88;;;1.09;82.36
10652;BME280;5374;42.742;23.266;2023-01-08T00:16:30;95940.59;;;1.13;82.14
10652;BME280;5374;42.742;23.266;2023-01-08T00:19:18;96019.72;;;1.44;83.07
10652;BME280;5374;42.742;23.266;2023-01-08T00:22:09;95985.22;;;1.11;83.44
10652;BME280;5374;42.742;23.266;2023-01-08T00:24:56;95950.13;;;1.06;83.75
10652;BME280;5374;42.742;23.266;2023-01-08T00:27:44;96014.31;;;1.46;84.12
10652;BME280;5374;42.742;23.266;2023-01-08T00:30:33;95949.50;;;1.03;84.04
10652;BME280;5374;42.742;23.266;2023-01-08T00:33:20;95995.19;;;1.30;84.06
10652;BME280;5374;42.742;23.266;2023-01-08T00:36:08;96001.41;;;1.44;84.07
10652;BME280;5374;42.742;23.266;2023-01-08T00:38:58;95934.59;;;0.89;83.79
10652;BME280;5374;42.742;23.266;2023-01-08T00:41:45;95948.06;;;1.01;84.09
10652;BME280;5374;42.742;23.266;2023-01-08T00:44:34;96017.94;;;1.45;83.98
10652;BME280;5374;42.742;23.266;2023-01-08T00:47:21;95972.50;;;1.08;83.90
10652;BME280;5374;42.742;23.266;2023-01-08T00:50:09;95979.06;;;1.04;84.02
10652;BME280;5374;42.742;23.266;2023-01-08T00:52:58;95963.03;;;1.07;82.74
10652;BME280;5374;42.742;23.266;2023-01-08T00:55:48;95987.13;;;1.17;82.33
10652;BME280;5374;42.742;23.266;2023-01-08T00:58:35;95992.69;;;1.14;82.97
10652;BME280;5374;42.742;23.266;2023-01-08T01:01:23;95952.31;;;0.79;84.04
10652;BME280;5374;42.742;23.266;2023-01-08T01:04:10;96020.59;;;1.22;84.78
10652;BME280;5374;42.742;23.266;2023-01-08T01:06:59;95953.50;;;0.77;85.07
10652;BME280;5374;42.742;23.266;2023-01-08T01:09:46;95963.72;;;0.63;85.41
10652;BME280;5374;42.742;23.266;2023-01-08T01:12:35;95934.81;;;0.65;85.50
10652;BME280;5374;42.742;23.266;2023-01-08T01:15:24;95978.81;;;0.76;85.52
10652;BME280;5374;42.742;23.266;2023-01-08T01:18:11;95938.41;;;0.64;85.44
10652;BME280;5374;42.742;23.266;2023-01-08T01:20:58;95991.34;;;1.03;85.25
10652;BME280;5374;42.742;23.266;2023-01-08T01:23:45;95969.28;;;0.83;85.38
10652;BME280;5374;42.742;23.266;2023-01-08T01:26:33;96011.63;;;1.16;85.06
10652;BME280;5374;42.742;23.266;2023-01-08T01:29:22;95960.34;;;0.78;85.20
10652;BME280;5374;42.742;23.266;2023-01-08T01:32:09;95946.97;;;0.73;85.36
10652;BME280;5374;42.742;23.266;2023-01-08T01:34:57;95992.38;;;0.94;84.73
10652;BME280;5374;42.742;23.266;2023-01-08T01:37:44;96006.16;;;1.11;84.25
10652;BME280;5374;42.742;23.266;2023-01-08T01:40:31;95965.88;;;0.83;84.26
10652;BME280;5374;42.742;23.266;2023-01-08T01:43:33;95959.22;;;0.72;84.28
10652;BME280;5374;42.742;23.266;2023-01-08T01:46:43;95918.72;;;0.53;84.29
10652;BME280;5374;42.742;23.266;2023-01-08T01:49:31;95995.75;;;1.03;84.16
10652;BME280;5374;42.742;23.266;2023-01-08T01:52:20;95973.00;;;0.89;83.68
10652;BME280;5374;42.742;23.266;2023-01-08T01:55:09;95926.22;;;0.56;83.56
10652;BME280;5374;42.742;23.266;2023-01-08T01:58:04;95991.84;;;0.99;83.31
10652;BME280;5374;42.742;23.266;2023-01-08T02:00:54;95935.03;;;0.55;83.15
10652;BME280;5374;42.742;23.266;2023-01-08T02:03:45;95988.31;;;0.92;83.63
10652;BME280;5374;42.742;23.266;2023-01-08T02:06:35;95987.72;;;0.90;83.53
10652;BME280;5374;42.742;23.266;2023-01-08T02:09:31;95932.47;;;0.47;83.10
10652;BME280;5374;42.742;23.266;2023-01-08T02:12:31;95943.53;;;0.57;83.43
10652;BME280;5374;42.742;23.266;2023-01-08T02:15:23;95984.97;;;0.83;83.72
10652;BME280;5374;42.742;23.266;2023-01-08T02:18:18;95980.56;;;0.84;83.57
10652;BME280;5374;42.742;23.266;2023-01-08T02:21:10;95986.13;;;0.81;83.72
10652;BME280;5374;42.742;23.266;2023-01-08T02:24:02;95882.06;;;0.24;82.95
10652;BME280;5374;42.742;23.266;2023-01-08T02:26:56;95978.69;;;0.69;83.53
10652;BME280;5374;42.742;23.266;2023-01-08T02:29:46;95978.81;;;0.76;83.74
10652;BME280;5374;42.742;23.266;2023-01-08T02:32:37;95924.44;;;0.34;83.57
10652;BME280;5374;42.742;23.266;2023-01-08T02:35:33;95973.59;;;0.76;83.56
10652;BME280;5374;42.742;23.266;2023-01-08T02:38:24;95969.34;;;0.75;83.43
10652;BME280;5374;42.742;23.266;2023-01-08T02:41:12;95921.13;;;0.40;83.69
10652;BME280;5374;42.742;23.266;2023-01-08T02:44:03;95965.44;;;0.71;83.38
10652;BME280;5374;42.742;23.266;2023-01-08T02:46:53;95961.75;;;0.65;83.27
10652;BME280;5374;42.742;23.266;2023-01-08T02:49:45;95931.06;;;0.45;83.67
10652;BME280;5374;42.742;23.266;2023-01-08T02:52:37;95908.97;;;0.24;83.54
10652;BME280;5374;42.742;23.266;2023-01-08T02:55:27;95958.84;;;0.38;83.38
10652;BME280;5374;42.742;23.266;2023-01-08T02:58:18;95961.16;;;0.55;83.78
10652;BME280;5374;42.742;23.266;2023-01-08T03:01:09;95962.78;;;0.56;83.37
10652;BME280;5374;42.742;23.266;2023-01-08T03:04:00;95948.06;;;0.41;82.93
10652;BME280;5374;42.742;23.266;2023-01-08T03:06:51;95925.34;;;0.18;82.40
10652;BME280;5374;42.742;23.266;2023-01-08T03:09:38;95967.09;;;0.49;82.49
10652;BME280;5374;42.742;23.266;2023-01-08T03:12:39;95970.34;;;0.51;82.11
10652;BME280;5374;42.742;23.266;2023-01-08T03:15:33;95970.69;;;0.48;81.61
10652;BME280;5374;42.742;23.266;2023-01-08T03:18:29;95971.06;;;0.45;80.88
10652;BME280;5374;42.742;23.266;2023-01-08T03:21:20;95974.69;;;0.36;81.55
10652;BME280;5374;42.742;23.266;2023-01-08T03:24:10;95978.13;;;0.37;80.79
10652;BME280;5374;42.742;23.266;2023-01-08T03:27:02;95973.75;;;0.29;81.05
10652;BME280;5374;42.742;23.266;2023-01-08T03:29:51;95975.44;;;0.22;81.59
10652;BME280;5374;42.742;23.266;2023-01-08T03:32:41;95945.16;;;0.05;81.83
10652;BME280;5374;42.742;23.266;2023-01-08T03:35:36;95971.72;;;0.16;82.40
10652;BME280;5374;42.742;23.266;2023-01-08T03:38:28;95906.84;;;-0.26;81.68
10652;BME280;5374;42.742;23.266;2023-01-08T03:41:19;95964.38;;;0.12;82.28
10652;BME280;5374;42.742;23.266;2023-01-08T03:44:09;95897.72;;;-0.30;81.53
10652;BME280;5374;42.742;23.266;2023-01-08T03:46:56;95968.97;;;0.10;82.15
10652;BME280;5374;42.742;23.266;2023-01-08T03:49:45;95913.38;;;-0.30;82.15
10652;BME280;5374;42.742;23.266;2023-01-08T03:52:34;95942.69;;;-0.20;82.48
10652;BME280;5374;42.742;23.266;2023-01-08T03:55:21;95911.75;;;-0.31;82.43
10652;BME280;5374;42.742;23.266;2023-01-08T03:58:08;95931.53;;;-0.06;82.81
10652;BME280;5374;42.742;23.266;2023-01-08T04:00:56;95962.41;;;0.14;82.22
10652;BME280;5374;42.742;23.266;2023-01-08T04:03:43;95964.72;;;0.09;81.94
10652;BME280;5374;42.742;23.266;2023-01-08T04:06:31;95909.78;;;-0.29;82.11
10652;BME280;5374;42.742;23.266;2023-01-08T04:09:20;95928.16;;;-0.22;81.58
10652;BME280;5374;42.742;23.266;2023-01-08T04:12:09;95944.91;;;-0.09;81.94
10652;BME280;5374;42.742;23.266;2023-01-08T04:14:56;95966.34;;;0.10;81.40
10652;BME280;5374;42.742;23.266;2023-01-08T04:17:44;95916.50;;;-0.35;81.38
10652;BME280;5374;42.742;23.266;2023-01-08T04:20:31;95885.13;;;-0.49;81.95
10652;BME280;5374;42.742;23.266;2023-01-08T04:23:18;95947.88;;;-0.12;81.74
10652;BME280;5374;42.742;23.266;2023-01-08T04:26:08;95890.03;;;-0.54;82.04
10652;BME280;5374;42.742;23.266;2023-01-08T04:28:55;95900.38;;;-0.38;82.28
10652;BME280;5374;42.742;23.266;2023-01-08T04:31:42;95972.25;;;0.04;82.61
10652;BME280;5374;42.742;23.266;2023-01-08T04:34:30;95921.88;;;-0.28;82.43
10652;BME280;5374;42.742;23.266;2023-01-08T04:37:17;95973.88;;;0.05;82.51
10652;BME280;5374;42.742;23.266;2023-01-08T04:40:05;95883.84;;;-0.61;82.33
10652;BME280;5374;42.742;23.266;2023-01-08T04:42:54;95983.69;;;0.03;82.25
10652;BME280;5374;42.742;23.266;2023-01-08T04:45:41;95953.09;;;-0.12;82.19
10652;BME280;5374;42.742;23.266;2023-01-08T04:48:30;95910.22;;;-0.48;82.27
10652;BME280;5374;42.742;23.266;2023-01-08T04:51:17;95919.28;;;-0.36;82.32
10652;BME280;5374;42.742;23.266;2023-01-08T04:54:05;95894.63;;;-0.64;82.41
10652;BME280;5374;42.742;23.266;2023-01-08T04:56:53;95956.44;;;-0.26;81.76
10652;BME280;5374;42.742;23.266;2023-01-08T04:59:41;95974.97;;;-0.21;81.93
10652;BME280;5374;42.742;23.266;2023-01-08T05:02:28;95953.28;;;-0.21;80.73
10652;BME280;5374;42.742;23.266;2023-01-08T05:05:16;95919.03;;;-0.57;81.03
10652;BME280;5374;42.742;23.266;2023-01-08T05:08:04;95989.97;;;-0.15;81.20
10652;BME280;5374;42.742;23.266;2023-01-08T05:10:57;95992.09;;;-0.18;81.46
10652;BME280;5374;42.742;23.266;2023-01-08T05:13:47;95961.84;;;-0.44;81.61
10652;BME280;5374;42.742;23.266;2023-01-08T05:16:36;95920.66;;;-0.56;81.77
10652;BME280;5374;42.742;23.266;2023-01-08T05:19:23;95981.47;;;-0.17;81.15
10652;BME280;5374;42.742;23.266;2023-01-08T05:22:11;95921.66;;;-0.57;81.32
10652;BME280;5374;42.742;23.266;2023-01-08T05:24:59;95957.59;;;-0.37;81.56
10652;BME280;5374;42.742;23.266;2023-01-08T05:27:47;95978.13;;;-0.33;81.86
10652;BME280;5374;42.742;23.266;2023-01-08T05:30:35;95878.47;;;-1.07;81.94
10652;BME280;5374;42.742;23.266;2023-01-08T05:33:25;95957.28;;;-0.42;81.80
10652;BME280;5374;42.742;23.266;2023-01-08T05:36:13;95889.47;;;-0.81;80.62
10652;BME280;5374;42.742;23.266;2023-01-08T05:39:01;95863.69;;;-1.15;80.66
10652;BME280;5374;42.742;23.266;2023-01-08T05:41:48;95929.84;;;-0.68;80.86
10652;BME280;5374;42.742;23.266;2023-01-08T05:44:35;95983.25;;;-0.48;81.24
10652;BME280;5374;42.742;23.266;2023-01-08T05:47:22;95983.84;;;-0.30;81.32
10652;BME280;5374;42.742;23.266;2023-01-08T05:50:11;95937.47;;;-0.59;81.14
10652;BME280;5374;42.742;23.266;2023-01-08T05:52:59;95960.59;;;-0.56;80.64
10652;BME280;5374;42.742;23.266;2023-01-08T05:55:46;95966.91;;;-0.42;80.22
10652;BME280;5374;42.742;23.266;2023-01-08T05:58:33;95982.22;;;-0.39;80.72
10652;BME280;5374;42.742;23.266;2023-01-08T06:01:23;95939.31;;;-0.76;79.93
10652;BME280;5374;42.742;23.266;2023-01-08T06:04:10;95952.16;;;-0.66;80.87
10652;BME280;5374;42.742;23.266;2023-01-08T06:07:08;95993.94;;;-0.35;81.32
10652;BME280;5374;42.742;23.266;2023-01-08T06:09:57;95980.47;;;-0.47;81.53
10652;BME280;5374;42.742;23.266;2023-01-08T06:12:44;96013.84;;;-0.34;81.65
10652;BME280;5374;42.742;23.266;2023-01-08T06:15:36;95949.69;;;-0.59;81.42
10652;BME280;5374;42.742;23.266;2023-01-08T06:18:28;95896.97;;;-0.86;81.08
10652;BME280;5374;42.742;23.266;2023-01-08T06:21:20;95946.19;;;-0.44;80.85
10652;BME280;5374;42.742;23.266;2023-01-08T06:24:13;95886.53;;;-0.78;81.11
10652;BME280;5374;42.742;23.266;2023-01-08T06:27:04;95940.22;;;-0.52;81.45
10652;BME280;5374;42.742;23.266;2023-01-08T06:30:05;95943.41;;;-0.34;81.84
10652;BME280;5374;42.742;23.266;2023-01-08T06:32:57;96005.69;;;0.08;81.36
10652;BME280;5374;42.742;23.266;2023-01-08T06:35:47;96016.56;;;0.20;80.98
10652;BME280;5374;42.742;23.266;2023-01-08T06:42:29;95949.25;;;-0.24;80.96
10652;BME280;5374;42.742;23.266;2023-01-08T06:45:22;96021.53;;;0.38;80.50
10652;BME280;5374;42.742;23.266;2023-01-08T06:48:09;95956.16;;;0.00;80.46
10652;BME280;5374;42.742;23.266;2023-01-08T06:51:02;95993.53;;;0.23;80.49
10652;BME280;5374;42.742;23.266;2023-01-08T06:53:49;96005.53;;;0.41;81.12
10652;BME280;5374;42.742;23.266;2023-01-08T06:56:37;95932.06;;;0.13;80.81
10652;BME280;5374;42.742;23.266;2023-01-08T06:59:26;95995.66;;;0.51;80.60
10652;BME280;5374;42.742;23.266;2023-01-08T07:02:15;96026.38;;;0.94;80.26
10652;BME280;5374;42.742;23.266;2023-01-08T07:05:19;95958.50;;;0.41;80.35
10652;BME280;5374;42.742;23.266;2023-01-08T07:08:29;96015.38;;;0.99;80.16
10652;BME280;5374;42.742;23.266;2023-01-08T07:11:42;96035.53;;;1.13;78.68
10652;BME280;5374;42.742;23.266;2023-01-08T07:14:35;96019.69;;;0.92;78.49
10652;BME280;5374;42.742;23.266;2023-01-08T07:17:35;95976.97;;;0.85;76.62
10652;BME280;5374;42.742;23.266;2023-01-08T07:23:16;96052.69;;;1.53;75.78
10652;BME280;5374;42.742;23.266;2023-01-08T07:26:04;96056.03;;;1.62;75.86
10652;BME280;5374;42.742;23.266;2023-01-08T07:28:53;96042.22;;;1.68;75.60
10652;BME280;5374;42.742;23.266;2023-01-08T07:31:41;96044.03;;;1.82;75.64
10652;BME280;5374;42.742;23.266;2023-01-08T07:34:29;96046.03;;;1.95;75.82
10652;BME280;5374;42.742;23.266;2023-01-08T07:37:16;96038.97;;;2.10;75.84
10652;BME280;5374;42.742;23.266;2023-01-08T07:40:05;96047.97;;;2.37;75.40
10652;BME280;5374;42.742;23.266;2023-01-08T07:42:57;96045.13;;;2.53;74.96
10652;BME280;5374;42.742;23.266;2023-01-08T07:45:45;96041.16;;;2.57;74.88
10652;BME280;5374;42.742;23.266;2023-01-08T07:48:34;96029.50;;;2.60;74.85
10652;BME280;5374;42.742;23.266;2023-01-08T07:51:21;96035.31;;;2.77;74.97
10652;BME280;5374;42.742;23.266;2023-01-08T07:54:08;96041.06;;;2.87;74.08
10652;BME280;5374;42.742;23.266;2023-01-08T07:56:56;96039.25;;;3.08;74.00
10652;BME280;5374;42.742;23.266;2023-01-08T07:59:43;96039.63;;;3.27;73.58
10652;BME280;5374;42.742;23.266;2023-01-08T08:02:30;96032.00;;;3.32;72.32
10652;BME280;5374;42.742;23.266;2023-01-08T08:05:19;96046.78;;;3.61;71.47
10652;BME280;5374;42.742;23.266;2023-01-08T08:08:07;96032.16;;;3.52;71.99
10652;BME280;5374;42.742;23.266;2023-01-08T08:10:55;96025.72;;;3.54;72.22
10652;BME280;5374;42.742;23.266;2023-01-08T08:13:42;96048.09;;;3.78;71.60
10652;BME280;5374;42.742;23.266;2023-01-08T08:16:29;96044.53;;;3.92;71.50
10652;BME280;5374;42.742;23.266;2023-01-08T08:19:16;96039.75;;;4.02;71.46
10652;BME280;5374;42.742;23.266;2023-01-08T08:22:05;96047.56;;;4.30;70.75
10652;BME280;5374;42.742;23.266;2023-01-08T08:24:52;96028.75;;;4.33;70.83
10652;BME280;5374;42.742;23.266;2023-01-08T08:27:40;96044.13;;;4.30;70.79
10652;BME280;5374;42.742;23.266;2023-01-08T08:30:28;96048.56;;;4.23;71.29
10652;BME280;5374;42.742;23.266;2023-01-08T08:33:16;96057.69;;;4.27;71.49
10652;BME280;5374;42.742;23.266;2023-01-08T08:36:04;96056.09;;;4.39;72.19
10652;BME280;5374;42.742;23.266;2023-01-08T08:38:52;96053.75;;;4.57;71.80
10652;BME280;5374;42.742;23.266;2023-01-08T08:41:39;96052.19;;;4.76;71.94
10652;BME280;5374;42.742;23.266;2023-01-08T08:44:27;96046.91;;;4.76;71.46
10652;BME280;5374;42.742;23.266;2023-01-08T08:47:14;96051.03;;;4.98;71.39
10652;BME280;5374;42.742;23.266;2023-01-08T08:50:01;96047.41;;;5.12;71.39
10652;BME280;5374;42.742;23.266;2023-01-08T08:52:49;96045.41;;;5.28;70.30
10652;BME280;5374;42.742;23.266;2023-01-08T08:55:37;96040.97;;;5.41;69.78
10652;BME280;5374;42.742;23.266;2023-01-08T08:58:24;96030.03;;;5.38;69.68
10652;BME280;5374;42.742;23.266;2023-01-08T09:01:12;96033.28;;;5.40;70.27
10652;BME280;5374;42.742;23.266;2023-01-08T09:03:59;96038.34;;;5.61;70.76
10652;BME280;5374;42.742;23.266;2023-01-08T09:06:46;96036.28;;;5.70;71.10
10652;BME280;5374;42.742;23.266;2023-01-08T09:09:34;95951.84;;;5.38;70.44
10652;BME280;5374;42.742;23.266;2023-01-08T09:12:22;96032.41;;;6.05;70.60
10652;BME280;5374;42.742;23.266;2023-01-08T09:15:10;96037.28;;;6.02;70.37
10652;BME280;5374;42.742;23.266;2023-01-08T09:17:57;96022.84;;;6.24;69.10
10652;BME280;5374;42.742;23.266;2023-01-08T09:20:45;96024.19;;;6.40;69.42
10652;BME280;5374;42.742;23.266;2023-01-08T09:23:32;96026.19;;;6.51;69.08
10652;BME280;5374;42.742;23.266;2023-01-08T09:26:19;96008.81;;;6.75;68.82
10652;BME280;5374;42.742;23.266;2023-01-08T09:29:08;96012.09;;;7.02;66.71
10652;BME280;5374;42.742;23.266;2023-01-08T09:31:55;96007.38;;;7.10;66.16
10652;BME280;5374;42.742;23.266;2023-01-08T09:34:45;95914.78;;;6.49;67.10
10652;BME280;5374;42.742;23.266;2023-01-08T09:37:32;95976.59;;;6.98;67.16
10652;BME280;5374;42.742;23.266;2023-01-08T09:40:19;95985.63;;;7.15;67.13
10652;BME280;5374;42.742;23.266;2023-01-08T09:43:14;95995.00;;;7.36;67.00
10652;BME280;5374;42.742;23.266;2023-01-08T09:46:05;95972.78;;;7.43;66.60
10652;BME280;5374;42.742;23.266;2023-01-08T09:48:54;95980.59;;;7.57;66.17
10652;BME280;5374;42.742;23.266;2023-01-08T09:51:43;95978.13;;;7.80;64.26
10652;BME280;5374;42.742;23.266;2023-01-08T09:54:30;95967.13;;;7.83;64.93
10652;BME280;5374;42.742;23.266;2023-01-08T09:57:19;95963.16;;;7.92;65.23
10652;BME280;5374;42.742;23.266;2023-01-08T10:00:12;95954.34;;;7.98;65.04
10652;BME280;5374;42.742;23.266;2023-01-08T10:03:01;95955.09;;;8.05;64.75
10652;BME280;5374;42.742;23.266;2023-01-08T10:05:50;95956.09;;;8.22;64.54
10652;BME280;5374;42.742;23.266;2023-01-08T10:08:37;95952.44;;;8.23;65.18
10652;BME280;5374;42.742;23.266;2023-01-08T10:11:28;95933.75;;;8.18;64.82
10652;BME280;5374;42.742;23.266;2023-01-08T10:14:20;95952.28;;;8.37;64.91
10652;BME280;5374;42.742;23.266;2023-01-08T10:17:20;95916.53;;;8.34;65.39
10652;BME280;5374;42.742;23.266;2023-01-08T10:20:16;95925.91;;;8.48;64.98
10652;BME280;5374;42.742;23.266;2023-01-08T10:23:10;95937.22;;;8.67;62.83
10652;BME280;5374;42.742;23.266;2023-01-08T10:25:59;95932.84;;;8.61;64.52
10652;BME280;5374;42.742;23.266;2023-01-08T10:28:47;95911.56;;;8.68;63.85
10652;BME280;5374;42.742;23.266;2023-01-08T10:31:38;95918.41;;;8.75;63.08
10652;BME280;5374;42.742;23.266;2023-01-08T10:34:32;95912.31;;;8.86;62.46
10652;BME280;5374;42.742;23.266;2023-01-08T10:37:28;95906.34;;;8.91;62.49
10652;BME280;5374;42.742;23.266;2023-01-08T10:40:26;95902.09;;;9.02;62.41
10652;BME280;5374;42.742;23.266;2023-01-08T10:43:17;95893.59;;;9.23;61.86
10652;BME280;5374;42.742;23.266;2023-01-08T10:46:07;95896.94;;;9.30;61.63
10652;BME280;5374;42.742;23.266;2023-01-08T10:49:02;95879.19;;;9.31;61.57
10652;BME280;5374;42.742;23.266;2023-01-08T10:51:52;95881.38;;;9.45;61.73
10652;BME280;5374;42.742;23.266;2023-01-08T10:54:41;95880.94;;;9.48;61.63
10652;BME280;5374;42.742;23.266;2023-01-08T10:57:31;95869.84;;;9.51;61.06
10652;BME280;5374;42.742;23.266;2023-01-08T11:00:24;95875.03;;;9.58;59.87
10652;BME280;5374;42.742;23.266;2023-01-08T11:03:19;95871.22;;;9.66;59.10
10652;BME280;5374;42.742;23.266;2023-01-08T11:06:11;95872.38;;;9.70;58.95
10652;BME280;5374;42.742;23.266;2023-01-08T11:09:01;95862.09;;;9.73;59.20
10652;BME280;5374;42.742;23.266;2023-01-08T11:11:50;95848.75;;;9.68;58.30
10652;BME280;5374;42.742;23.266;2023-01-08T11:14:38;95864.50;;;9.75;58.52
10652;BME280;5374;42.742;23.266;2023-01-08T11:17:26;95856.47;;;9.70;58.87
10652;BME280;5374;42.742;23.266;2023-01-08T11:20:21;95857.81;;;9.84;58.66
10652;BME280;5374;42.742;23.266;2023-01-08T11:23:15;95859.16;;;9.98;58.09
10652;BME280;5374;42.742;23.266;2023-01-08T11:26:08;95840.69;;;10.03;58.32
10652;BME280;5374;42.742;23.266;2023-01-08T11:29:05;95837.88;;;10.21;58.08
10652;BME280;5374;42.742;23.266;2023-01-08T11:32:09;95846.88;;;10.20;57.37
10652;BME280;5374;42.742;23.266;2023-01-08T11:35:11;95835.88;;;10.28;56.94
10652;BME280;5374;42.742;23.266;2023-01-08T11:38:01;95819.72;;;10.30;57.16
10652;BME280;5374;42.742;23.266;2023-01-08T11:40:53;95823.84;;;10.38;55.98
10652;BME280;5374;42.742;23.266;2023-01-08T11:43:54;95816.28;;;10.46;55.53
10652;BME280;5374;42.742;23.266;2023-01-08T11:46:55;95827.00;;;10.68;55.94
10652;BME280;5374;42.742;23.266;2023-01-08T11:50:04;95822.59;;;10.57;56.25
10652;BME280;5374;42.742;23.266;2023-01-08T11:53:08;95810.03;;;10.69;56.02
10652;BME280;5374;42.742;23.266;2023-01-08T11:56:12;95811.75;;;10.75;54.48
10652;BME280;5374;42.742;23.266;2023-01-08T11:59:12;95807.56;;;10.79;54.33
10652;BME280;5374;42.742;23.266;2023-01-08T12:02:17;95790.00;;;10.78;54.03
10652;BME280;5374;42.742;23.266;2023-01-08T12:05:22;95805.13;;;10.61;55.46
10652;BME280;5374;42.742;23.266;2023-01-08T12:08:17;95788.78;;;10.69;55.48
10652;BME280;5374;42.742;23.266;2023-01-08T12:11:13;95797.41;;;10.76;55.28
10652;BME280;5374;42.742;23.266;2023-01-08T12:14:18;95780.19;;;10.79;55.18
10652;BME280;5374;42.742;23.266;2023-01-08T12:20:47;95780.16;;;10.95;54.46
10652;BME280;5374;42.742;23.266;2023-01-08T12:23:58;95778.22;;;11.08;53.56
10652;BME280;5374;42.742;23.266;2023-01-08T12:26:58;95761.78;;;11.11;53.85
10652;BME280;5374;42.742;23.266;2023-01-08T12:30:02;95774.19;;;11.22;53.96
10652;BME280;5374;42.742;23.266;2023-01-08T12:33:00;95771.03;;;11.25;54.11
10652;BME280;5374;42.742;23.266;2023-01-08T12:35:51;95774.28;;;11.32;52.59
10652;BME280;5374;42.742;23.266;2023-01-08T12:38:42;95770.59;;;11.33;52.88
10652;BME280;5374;42.742;23.266;2023-01-08T12:41:33;95766.63;;;11.36;52.36
10652;BME280;5374;42.742;23.266;2023-01-08T12:44:23;95762.06;;;11.31;52.91
10652;BME280;5374;42.742;23.266;2023-01-08T12:47:15;95766.28;;;11.27;52.92
10652;BME280;5374;42.742;23.266;2023-01-08T12:50:20;95744.28;;;11.15;52.92
10652;BME280;5374;42.742;23.266;2023-01-08T12:53:15;95754.44;;;11.18;53.33
10652;BME280;5374;42.742;23.266;2023-01-08T12:56:10;95745.75;;;11.22;53.12
10652;BME280;5374;42.742;23.266;2023-01-08T12:59:13;95755.63;;;11.27;52.52
10652;BME280;5374;42.742;23.266;2023-01-08T13:02:14;95752.28;;;11.15;52.56
10652;BME280;5374;42.742;23.266;2023-01-08T13:05:12;95721.72;;;10.95;52.42
10652;BME280;5374;42.742;23.266;2023-01-08T13:08:01;95750.06;;;11.07;52.35
10652;BME280;5374;42.742;23.266;2023-01-08T13:10:51;95747.31;;;10.85;53.22
10652;BME280;5374;42.742;23.266;2023-01-08T13:13:41;95746.03;;;10.87;53.07
10652;BME280;5374;42.742;23.266;2023-01-08T13:16:32;95756.00;;;10.97;52.85
10652;BME280;5374;42.742;23.266;2023-01-08T13:19:23;95743.53;;;10.98;52.75
10652;BME280;5374;42.742;23.266;2023-01-08T13:22:23;95753.69;;;11.01;52.83
10652;BME280;5374;42.742;23.266;2023-01-08T13:25:32;95746.19;;;10.98;53.27
10652;BME280;5374;42.742;23.266;2023-01-08T13:28:29;95733.88;;;10.91;52.91
10652;BME280;5374;42.742;23.266;2023-01-08T13:31:26;95742.66;;;10.92;53.17
10652;BME280;5374;42.742;23.266;2023-01-08T13:34:19;95732.19;;;10.85;53.21
10652;BME280;5374;42.742;23.266;2023-01-08T13:37:07;95744.03;;;10.94;53.08
10652;BME280;5374;42.742;23.266;2023-01-08T13:39:56;95733.25;;;10.84;53.06
10652;BME280;5374;42.742;23.266;2023-01-08T13:42:44;95751.34;;;10.87;53.35
10652;BME280;5374;42.742;23.266;2023-01-08T13:45:31;95730.28;;;10.81;53.18
10652;BME280;5374;42.742;23.266;2023-01-08T13:48:21;95737.34;;;10.92;52.78
10652;BME280;5374;42.742;23.266;2023-01-08T13:51:27;95740.72;;;10.87;53.18
10652;BME280;5374;42.742;23.266;2023-01-08T13:54:23;95743.38;;;10.87;53.52
10652;BME280;5374;42.742;23.266;2023-01-08T13:57:15;95739.09;;;10.86;53.62
10652;BME280;5374;42.742;23.266;2023-01-08T14:00:05;95717.31;;;10.68;53.68
10652;BME280;5374;42.742;23.266;2023-01-08T14:02:55;95718.38;;;10.67;53.62
10652;BME280;5374;42.742;23.266;2023-01-08T14:05:43;95714.91;;;10.66;53.77
10652;BME280;5374;42.742;23.266;2023-01-08T14:08:30;95739.78;;;10.77;53.97
10652;BME280;5374;42.742;23.266;2023-01-08T14:11:19;95744.78;;;10.73;53.89
10652;BME280;5374;42.742;23.266;2023-01-08T14:14:14;95712.03;;;10.51;54.01
10652;BME280;5374;42.742;23.266;2023-01-08T14:17:02;95706.16;;;10.49;54.07
10652;BME280;5374;42.742;23.266;2023-01-08T14:19:49;95727.06;;;10.62;54.28
10652;BME280;5374;42.742;23.266;2023-01-08T14:22:36;95732.88;;;10.59;54.30
10652;BME280;5374;42.742;23.266;2023-01-08T14:25:24;95720.47;;;10.48;54.56
10652;BME280;5374;42.742;23.266;2023-01-08T14:28:15;95726.91;;;10.52;54.76
10652;BME280;5374;42.742;23.266;2023-01-08T14:31:22;95722.38;;;11.90;53.61
10652;BME280;5374;42.742;23.266;2023-01-08T14:34:12;95706.59;;;13.16;48.46
10652;BME280;5374;42.742;23.266;2023-01-08T14:37:03;95721.16;;;12.66;49.17
10652;BME280;5374;42.742;23.266;2023-01-08T14:39:54;95721.66;;;11.99;50.16
10652;BME280;5374;42.742;23.266;2023-01-08T14:42:43;95713.75;;;11.61;51.33
10652;BME280;5374;42.742;23.266;2023-01-08T14:45:43;95721.00;;;11.22;52.17
10652;BME280;5374;42.742;23.266;2023-01-08T14:48:34;95718.00;;;10.96;53.21
10652;BME280;5374;42.742;23.266;2023-01-08T14:51:26;95704.94;;;10.73;53.96
10652;BME280;5374;42.742;23.266;2023-01-08T14:54:18;95701.41;;;10.51;54.63
10652;BME280;5374;42.742;23.266;2023-01-08T14:57:11;95703.75;;;10.31;55.42
10652;BME280;5374;42.742;23.266;2023-01-08T14:59:59;95691.63;;;10.06;55.96
10652;BME280;5374;42.742;23.266;2023-01-08T15:02:48;95704.13;;;9.94;56.51
10652;BME280;5374;42.742;23.266;2023-01-08T15:05:47;95692.56;;;9.83;57.32
10652;BME280;5374;42.742;23.266;2023-01-08T15:08:40;95695.66;;;9.64;57.79
10652;BME280;5374;42.742;23.266;2023-01-08T15:11:30;95702.75;;;9.46;58.27
10652;BME280;5374;42.742;23.266;2023-01-08T15:14:22;95706.13;;;9.30;58.81
10652;BME280;5374;42.742;23.266;2023-01-08T15:17:15;95671.31;;;8.86;59.11
10652;BME280;5374;42.742;23.266;2023-01-08T15:20:04;95703.91;;;8.99;59.52
10652;BME280;5374;42.742;23.266;2023-01-08T15:22:54;95704.06;;;8.80;59.65
10652;BME280;5374;42.742;23.266;2023-01-08T15:25:43;95708.41;;;8.75;60.11